BBC Emsland — V2QD7 — position and weather

sailwx.info

Track history (hours):
 
Tides and Currents Weather Stations Pressure Air Temp Water Temp Dewpoint Dewpoint Depression Visibility Wind Speed Wind Dir Waves Ship Positions

BBC Emsland

Last reported at 2018-Jan-24 02:20 UTC. Time now 2018-Feb-21 01:20 UTC.
Position S 38°57' E 147°15'.
Warning: this ship's position is 27 days out of date.

Length 145 m; draft 6.7 m.

Type: Ship. MMSI: 305561000.

Date/timePositionNaut miles runAvg speedWind from/ knotsBaromVisibWave heightAir tempDewpointWater temp
2018-Jan-24 02:20S 38°57' E 147°15'5912.6
2018-Jan-23 21:37S 38°36' E 148°26'513.1
2018-Jan-23 21:12S 38°33' E 148°32'1913.2
2018-Jan-23 19:47S 38°22' E 148°52'19413.5
2018-Jan-23 05:23S 35°53' E 151°28'715.0
2018-Jan-23 04:57S 35°48' E 151°32'715.3
2018-Jan-23 04:31S 35°42' E 151°37'1115.1
2018-Jan-23 03:49S 35°34' E 151°44'1014.7
2018-Jan-23 03:07S 35°25' E 151°52'214.4
2018-Jan-23 02:59S 35°24' E 151°53'714.1
2018-Jan-23 02:30S 35°18' E 151°58'713.9
2018-Jan-23 02:00S 35°12' E 152°03'713.6
2018-Jan-23 01:30S 35°06' E 152°07'713.4
2018-Jan-23 01:00S 35°00' E 152°10'713.5
2018-Jan-23 00:30S 34°54' E 152°13'713.5
2018-Jan-22 23:59S 34°47' E 152°16'613.4
2018-Jan-22 23:30S 34°41' E 152°19'713.5
2018-Jan-22 23:00S 34°35' E 152°22'713.5
2018-Jan-22 22:30S 34°29' E 152°25'713.4
2018-Jan-22 22:00S 34°23' E 152°27'713.7
2018-Jan-22 21:28S 34°15' E 152°30'2013.7
2018-Jan-22 19:59S 33°56' E 152°38'613.6
2018-Jan-22 19:30S 33°50' E 152°40'713.6
2018-Jan-22 19:00S 33°44' E 152°43'3613.7
2018-Jan-22 16:24S 33°10' E 152°58'513.7
2018-Jan-22 16:00S 33°05' E 153°00'2113.6
2018-Jan-22 14:29S 32°45' E 153°07'613.6
2018-Jan-22 14:00S 32°39' E 153°09'713.9
2018-Jan-22 13:30S 32°32' E 153°11'1214.1
2018-Jan-22 12:38S 32°20' E 153°14'214.1
2018-Jan-22 12:30S 32°19' E 153°15'714.2
2018-Jan-22 11:59S 32°11' E 153°16'814.1
2018-Jan-22 11:24S 32°03' E 153°18'614.1
2018-Jan-22 10:57S 31°57' E 153°20'21214.9
2018-Jan-21 20:46S 28°29' E 154°04'814.9
2018-Jan-21 20:14S 28°21' E 154°03'314.6
2018-Jan-21 20:00S 28°17' E 154°02'714.5
2018-Jan-21 19:30S 28°10' E 154°01'714.3
2018-Jan-21 19:00S 28°03' E 153°60'714.1
2018-Jan-21 18:30S 27°56' E 153°58'714.1
2018-Jan-21 17:59S 27°49' E 153°56'4714.3
2018-Jan-21 14:40S 27°02' E 153°47'3510.0
2018-Jan-21 11:08S 26°48' E 153°11'212.3
2018-Jan-21 10:59S 26°49' E 153°09'611.7
2018-Jan-21 10:30S 26°55' E 153°11'612.6
2018-Jan-21 10:00S 27°00' E 153°14'611.5
2018-Jan-21 09:30S 27°05' E 153°19'510.7
2018-Jan-21 09:00S 27°10' E 153°20'612.5
2018-Jan-21 08:30S 27°15' E 153°16'713.2
2018-Jan-21 08:00S 27°20' E 153°11'3 6.5
2018-Jan-21 07:29S 27°23' E 153°09'0 0.0
2018-Jan-21 06:59S 27°23' E 153°09'0 0.0
2018-Jan-21 06:29S 27°23' E 153°09'0 0.0
2018-Jan-21 05:59S 27°23' E 153°09'0 0.0
2018-Jan-21 05:29S 27°23' E 153°09'0 0.0
2018-Jan-21 04:59S 27°23' E 153°09'0 0.0
2018-Jan-21 04:29S 27°23' E 153°09'0 0.0
2018-Jan-21 03:59S 27°23' E 153°09'0 0.0
2018-Jan-21 03:29S 27°23' E 153°09'0 0.0
2018-Jan-21 02:59S 27°23' E 153°09'0 0.0
2018-Jan-21 02:26S 27°23' E 153°09'0 0.0
2018-Jan-21 01:59S 27°23' E 153°09'0 0.0
2018-Jan-21 01:29S 27°23' E 153°09'0 0.0
2018-Jan-21 00:59S 27°23' E 153°09'0 0.0
2018-Jan-21 00:29S 27°23' E 153°09'0 0.0
2018-Jan-20 23:59S 27°23' E 153°09'0 0.0
2018-Jan-20 23:29S 27°23' E 153°09'0 0.2
2018-Jan-20 23:00S 27°23' E 153°09'4 7.3
2018-Jan-20 22:30S 27°20' E 153°11'712.9
2018-Jan-20 22:00S 27°15' E 153°16'612.8
2018-Jan-20 21:29S 27°10' E 153°20'612.0
2018-Jan-20 20:59S 27°04' E 153°18'611.8
2018-Jan-20 20:30S 26°60' E 153°14'612.7
2018-Jan-20 20:00S 26°54' E 153°11'  
Track history (hours):
 
Tides and Currents Weather Stations Pressure Air Temp Water Temp Dewpoint Dewpoint Depression Visibility Wind Speed Wind Dir Waves Ship Positions

BBC Emsland

Last reported at 2018-Jan-24 02:20 UTC. Time now 2018-Feb-21 01:20 UTC.
Position S 38°57' E 147°15'.
Warning: this ship's position is 27 days out of date.

Length 145 m; draft 6.7 m.

Type: Ship. MMSI: 305561000.

Date/timePositionNaut miles runAvg speedWind from/ knotsBaromVisibWave heightAir tempDewpointWater temp
2018-Jan-24 02:20S 38°57' E 147°15'5912.6
2018-Jan-23 21:37S 38°36' E 148°26'513.1
2018-Jan-23 21:12S 38°33' E 148°32'1913.2
2018-Jan-23 19:47S 38°22' E 148°52'19413.5
2018-Jan-23 05:23S 35°53' E 151°28'715.0
2018-Jan-23 04:57S 35°48' E 151°32'715.3
2018-Jan-23 04:31S 35°42' E 151°37'1115.1
2018-Jan-23 03:49S 35°34' E 151°44'1014.7
2018-Jan-23 03:07S 35°25' E 151°52'214.4
2018-Jan-23 02:59S 35°24' E 151°53'714.1
2018-Jan-23 02:30S 35°18' E 151°58'713.9
2018-Jan-23 02:00S 35°12' E 152°03'713.6
2018-Jan-23 01:30S 35°06' E 152°07'713.4
2018-Jan-23 01:00S 35°00' E 152°10'713.5
2018-Jan-23 00:30S 34°54' E 152°13'713.5
2018-Jan-22 23:59S 34°47' E 152°16'613.4
2018-Jan-22 23:30S 34°41' E 152°19'713.5
2018-Jan-22 23:00S 34°35' E 152°22'713.5
2018-Jan-22 22:30S 34°29' E 152°25'713.4
2018-Jan-22 22:00S 34°23' E 152°27'713.7
2018-Jan-22 21:28S 34°15' E 152°30'2013.7
2018-Jan-22 19:59S 33°56' E 152°38'613.6
2018-Jan-22 19:30S 33°50' E 152°40'713.6
2018-Jan-22 19:00S 33°44' E 152°43'3613.7
2018-Jan-22 16:24S 33°10' E 152°58'513.7
2018-Jan-22 16:00S 33°05' E 153°00'2113.6
2018-Jan-22 14:29S 32°45' E 153°07'613.6
2018-Jan-22 14:00S 32°39' E 153°09'713.9
2018-Jan-22 13:30S 32°32' E 153°11'1214.1
2018-Jan-22 12:38S 32°20' E 153°14'214.1
2018-Jan-22 12:30S 32°19' E 153°15'714.2
2018-Jan-22 11:59S 32°11' E 153°16'814.1
2018-Jan-22 11:24S 32°03' E 153°18'614.1
2018-Jan-22 10:57S 31°57' E 153°20'21214.9
2018-Jan-21 20:46S 28°29' E 154°04'814.9
2018-Jan-21 20:14S 28°21' E 154°03'314.6
2018-Jan-21 20:00S 28°17' E 154°02'714.5
2018-Jan-21 19:30S 28°10' E 154°01'714.3
2018-Jan-21 19:00S 28°03' E 153°60'714.1
2018-Jan-21 18:30S 27°56' E 153°58'714.1
2018-Jan-21 17:59S 27°49' E 153°56'4714.3
2018-Jan-21 14:40S 27°02' E 153°47'3510.0
2018-Jan-21 11:08S 26°48' E 153°11'212.3
2018-Jan-21 10:59S 26°49' E 153°09'611.7
2018-Jan-21 10:30S 26°55' E 153°11'612.6
2018-Jan-21 10:00S 27°00' E 153°14'611.5
2018-Jan-21 09:30S 27°05' E 153°19'510.7
2018-Jan-21 09:00S 27°10' E 153°20'612.5
2018-Jan-21 08:30S 27°15' E 153°16'713.2
2018-Jan-21 08:00S 27°20' E 153°11'3 6.5
2018-Jan-21 07:29S 27°23' E 153°09'0 0.0
2018-Jan-21 06:59S 27°23' E 153°09'0 0.0
2018-Jan-21 06:29S 27°23' E 153°09'0 0.0
2018-Jan-21 05:59S 27°23' E 153°09'0 0.0
2018-Jan-21 05:29S 27°23' E 153°09'0 0.0
2018-Jan-21 04:59S 27°23' E 153°09'0 0.0
2018-Jan-21 04:29S 27°23' E 153°09'0 0.0
2018-Jan-21 03:59S 27°23' E 153°09'0 0.0
2018-Jan-21 03:29S 27°23' E 153°09'0 0.0
2018-Jan-21 02:59S 27°23' E 153°09'0 0.0
2018-Jan-21 02:26S 27°23' E 153°09'0 0.0
2018-Jan-21 01:59S 27°23' E 153°09'0 0.0
2018-Jan-21 01:29S 27°23' E 153°09'0 0.0
2018-Jan-21 00:59S 27°23' E 153°09'0 0.0
2018-Jan-21 00:29S 27°23' E 153°09'0 0.0
2018-Jan-20 23:59S 27°23' E 153°09'0 0.0
2018-Jan-20 23:29S 27°23' E 153°09'0 0.2
2018-Jan-20 23:00S 27°23' E 153°09'4 7.3
2018-Jan-20 22:30S 27°20' E 153°11'712.9
2018-Jan-20 22:00S 27°15' E 153°16'612.8
2018-Jan-20 21:29S 27°10' E 153°20'612.0
2018-Jan-20 20:59S 27°04' E 153°18'611.8
2018-Jan-20 20:30S 26°60' E 153°14'612.7
2018-Jan-20 20:00S 26°54' E 153°11'  

Dump ship's entire track history